Time;durP1;ratioP1;P1;durP2;ratioP2;P2;SDS_P1;SDS_P2;PMS_P1;PMS_P2;Temp;Humidity;BMP_temperature;BMP_pressure;BME280_temperature;BME280_humidity;BME280_pressure;Samples;Min_cycle;Max_cycle;Signal;HPM_P1;HPM_P2
2021/11/27 00:02:05;;;;;;;39.72;20.35;;;;;;;;;;5036596;28;20407;-86
2021/11/27 00:04:31;;;;;;;38.67;20.50;;;;;;;;;;5041044;28;20416;-86
2021/11/27 00:07:00;;;;;;;38.92;19.90;;;;;;;;;;5046987;28;20412;-86
2021/11/27 00:09:26;;;;;;;34.95;18.08;;;;;;;;;;5041819;28;20408;-86
2021/11/27 00:11:53;;;;;;;33.65;17.80;;;;;;;;;;5043723;28;20422;-86
2021/11/27 00:14:20;;;;;;;32.75;17.58;;;;;;;;;;5032916;28;20520;-86
2021/11/27 00:16:47;;;;;;;29.65;16.83;;;;;;;;;;5046888;28;20392;-86
2021/11/27 00:19:14;;;;;;;31.58;16.48;;;;;;;;;;5039723;28;20404;-86
2021/11/27 00:21:44;;;;;;;25.25;14.73;;;;;;;;;;5043028;28;20430;-86
2021/11/27 00:24:12;;;;;;;23.60;13.63;;;;;;;;;;5038887;28;20482;-86
2021/11/27 00:26:39;;;;;;;23.35;14.57;;;;;;;;;;5036562;28;20405;-85
2021/11/27 00:29:08;;;;;;;23.75;13.45;;;;;;;;;;5040731;28;20411;-86
2021/11/27 00:31:37;;;;;;;24.77;13.75;;;;;;;;;;5039663;28;20426;-86
2021/11/27 00:34:04;;;;;;;23.30;13.93;;;;;;;;;;5034945;28;20519;-86
2021/11/27 00:36:31;;;;;;;21.85;13.40;;;;;;;;;;5047240;28;20941;-86
2021/11/27 00:38:58;;;;;;;22.85;14.25;;;;;;;;;;5039798;28;20407;-86
2021/11/27 00:41:27;;;;;;;23.20;14.17;;;;;;;;;;5037682;28;20427;-86
2021/11/27 00:43:54;;;;;;;22.67;13.70;;;;;;;;;;5039630;28;20888;-86
2021/11/27 00:46:22;;;;;;;26.75;14.95;;;;;;;;;;5032106;28;20406;-86
2021/11/27 00:48:49;;;;;;;24.75;14.63;;;;;;;;;;5041213;28;20841;-86
2021/11/27 00:51:18;;;;;;;25.95;14.50;;;;;;;;;;5041294;28;20431;-86
2021/11/27 00:53:46;;;;;;;26.75;14.88;;;;;;;;;;5036788;28;20934;-85
2021/11/27 00:56:14;;;;;;;25.08;15.07;;;;;;;;;;5040892;28;20392;-86
2021/11/27 00:58:43;;;;;;;27.60;15.10;;;;;;;;;;5041568;28;20476;-86
2021/11/27 01:01:12;;;;;;;24.40;14.40;;;;;;;;;;5039438;28;20440;-85
2021/11/27 01:03:44;;;;;;;30.42;14.93;;;;;;;;;;5038435;28;20404;-86
2021/11/27 01:06:13;;;;;;;27.45;15.07;;;;;;;;;;5026719;28;20446;-87
2021/11/27 01:08:42;;;;;;;29.48;16.17;;;;;;;;;;5036592;28;20949;-86
2021/11/27 01:11:13;;;;;;;28.90;15.90;;;;;;;;;;5038629;28;20446;-86
2021/11/27 01:13:45;;;;;;;27.85;16.05;;;;;;;;;;5037236;28;20751;-86
2021/11/27 01:16:13;;;;;;;30.02;16.50;;;;;;;;;;5035531;28;20517;-86
2021/11/27 01:18:40;;;;;;;28.98;16.45;;;;;;;;;;5037582;28;20404;-85
2021/11/27 01:21:10;;;;;;;29.73;17.02;;;;;;;;;;5048992;28;20994;-87
2021/11/27 01:23:38;;;;;;;30.83;17.67;;;;;;;;;;5038352;28;20396;-86
2021/11/27 01:26:06;;;;;;;29.45;17.13;;;;;;;;;;5038798;28;20418;-86
2021/11/27 01:28:33;;;;;;;30.52;16.67;;;;;;;;;;5034555;28;20471;-86
2021/11/27 01:31:02;;;;;;;28.27;15.57;;;;;;;;;;5043381;28;20435;-86
2021/11/27 01:33:31;;;;;;;25.60;15.25;;;;;;;;;;5034805;28;20400;-86
2021/11/27 01:35:59;;;;;;;24.80;15.23;;;;;;;;;;5050040;28;20560;-87
2021/11/27 01:38:26;;;;;;;23.70;14.10;;;;;;;;;;5043461;28;20403;-86
2021/11/27 01:40:54;;;;;;;22.38;13.23;;;;;;;;;;5038318;28;20762;-86
2021/11/27 01:43:21;;;;;;;24.27;13.65;;;;;;;;;;5042180;28;20469;-86
2021/11/27 01:45:48;;;;;;;21.05;12.95;;;;;;;;;;5035005;28;20929;-85
2021/11/27 01:48:19;;;;;;;18.20;12.23;;;;;;;;;;5045530;28;20910;-86
2021/11/27 01:50:50;;;;;;;17.15;11.05;;;;;;;;;;5044969;28;20415;-87
2021/11/27 01:53:17;;;;;;;16.35;11.02;;;;;;;;;;5045509;28;20404;-86
2021/11/27 01:55:45;;;;;;;15.60;10.77;;;;;;;;;;5039460;28;20490;-86
2021/11/27 01:58:12;;;;;;;12.93;9.23;;;;;;;;;;5043318;28;20395;-86
2021/11/27 02:00:44;;;;;;;15.55;9.98;;;;;;;;;;5035682;28;20411;-85
2021/11/27 02:03:11;;;;;;;12.88;9.13;;;;;;;;;;5033063;28;20396;-86
2021/11/27 02:05:40;;;;;;;14.70;9.70;;;;;;;;;;5040341;28;20518;-86
2021/11/27 02:08:07;;;;;;;11.85;8.55;;;;;;;;;;5031268;28;20411;-86
2021/11/27 02:10:34;;;;;;;11.70;9.20;;;;;;;;;;5041839;28;20741;-86
2021/11/27 02:13:01;;;;;;;12.82;8.68;;;;;;;;;;5034634;28;20903;-86
2021/11/27 02:15:28;;;;;;;10.82;8.35;;;;;;;;;;5039279;28;20405;-85
2021/11/27 02:17:55;;;;;;;13.13;8.88;;;;;;;;;;5034713;28;20405;-85
2021/11/27 02:20:22;;;;;;;10.43;8.02;;;;;;;;;;5042175;28;20892;-86
2021/11/27 02:22:51;;;;;;;12.70;8.60;;;;;;;;;;5041912;28;20773;-85
2021/11/27 02:25:20;;;;;;;10.82;8.40;;;;;;;;;;5032655;28;20456;-86
2021/11/27 02:27:49;;;;;;;11.32;8.65;;;;;;;;;;5045015;28;20741;-86
2021/11/27 02:30:18;;;;;;;11.73;8.60;;;;;;;;;;5039838;28;20889;-86
2021/11/27 02:32:45;;;;;;;12.23;8.63;;;;;;;;;;5028625;28;20405;-86
2021/11/27 02:35:12;;;;;;;12.50;8.90;;;;;;;;;;5040991;28;20415;-86
2021/11/27 02:37:40;;;;;;;12.77;8.73;;;;;;;;;;5041059;28;20407;-86
2021/11/27 02:40:10;;;;;;;12.23;8.45;;;;;;;;;;5042433;28;20403;-87
2021/11/27 02:42:37;;;;;;;11.98;8.60;;;;;;;;;;5031900;28;20723;-86
2021/11/27 02:45:06;;;;;;;11.52;8.10;;;;;;;;;;5035400;28;20895;-86
2021/11/27 02:47:33;;;;;;;10.88;8.23;;;;;;;;;;5039127;28;20922;-86
2021/11/27 02:50:02;;;;;;;12.63;8.38;;;;;;;;;;5042271;28;20403;-87
2021/11/27 02:52:29;;;;;;;11.02;8.45;;;;;;;;;;5043818;28;20412;-86
2021/11/27 02:54:56;;;;;;;10.60;8.27;;;;;;;;;;5044469;28;21278;-86
2021/11/27 02:57:25;;;;;;;11.57;8.63;;;;;;;;;;5038931;28;20401;-86
2021/11/27 02:59:52;;;;;;;12.55;9.30;;;;;;;;;;5047340;28;21191;-87
2021/11/27 03:02:19;;;;;;;11.65;8.68;;;;;;;;;;5046074;28;20412;-86
2021/11/27 03:04:49;;;;;;;12.50;8.97;;;;;;;;;;5048742;28;20411;-86
2021/11/27 03:07:17;;;;;;;12.68;9.43;;;;;;;;;;5048848;28;20542;-86
2021/11/27 03:09:44;;;;;;;13.93;9.73;;;;;;;;;;5048044;28;20408;-86
2021/11/27 03:12:11;;;;;;;13.93;10.43;;;;;;;;;;5048016;28;20404;-86
2021/11/27 03:14:40;;;;;;;12.75;9.90;;;;;;;;;;5048581;28;20780;-86
2021/11/27 03:17:07;;;;;;;15.13;10.90;;;;;;;;;;5048212;28;20759;-86
2021/11/27 03:19:37;;;;;;;15.40;11.02;;;;;;;;;;5046177;28;20407;-83
2021/11/27 03:22:04;;;;;;;15.15;10.70;;;;;;;;;;5047775;28;20408;-85
2021/11/27 03:24:31;;;;;;;16.25;10.90;;;;;;;;;;5047683;28;20799;-85
2021/11/27 03:26:58;;;;;;;15.02;10.57;;;;;;;;;;5045789;28;20423;-84
2021/11/27 03:29:25;;;;;;;16.88;11.50;;;;;;;;;;5046650;28;20407;-85
2021/11/27 03:31:58;;;;;;;15.10;10.73;;;;;;;;;;5047831;28;20430;-86
2021/11/27 03:34:26;;;;;;;16.17;10.85;;;;;;;;;;5047830;28;20839;-86
2021/11/27 03:36:53;;;;;;;17.50;11.27;;;;;;;;;;5048798;28;20420;-86
2021/11/27 03:39:20;;;;;;;17.38;12.13;;;;;;;;;;5047918;28;20876;-86
2021/11/27 03:41:47;;;;;;;18.58;11.77;;;;;;;;;;5047869;28;20752;-86
2021/11/27 03:44:14;;;;;;;17.08;11.43;;;;;;;;;;5048280;28;20411;-86
2021/11/27 03:46:41;;;;;;;17.02;11.38;;;;;;;;;;5047653;28;20419;-85
2021/11/27 03:49:10;;;;;;;18.50;12.10;;;;;;;;;;5046824;28;20446;-86
2021/11/27 03:51:37;;;;;;;17.73;11.80;;;;;;;;;;5049246;28;20400;-85
2021/11/27 03:54:04;;;;;;;16.65;11.48;;;;;;;;;;5042917;28;20411;-86
2021/11/27 03:56:32;;;;;;;17.70;12.20;;;;;;;;;;5047734;28;20407;-86
2021/11/27 03:59:02;;;;;;;18.75;12.05;;;;;;;;;;5047326;28;20414;-86
2021/11/27 04:01:30;;;;;;;17.92;12.38;;;;;;;;;;5047667;28;20405;-85
2021/11/27 04:03:59;;;;;;;19.40;12.65;;;;;;;;;;5047151;28;21233;-86
2021/11/27 04:06:28;;;;;;;17.50;11.98;;;;;;;;;;5032157;28;20467;-85
2021/11/27 04:08:58;;;;;;;18.58;12.73;;;;;;;;;;5042361;28;20453;-85
2021/11/27 04:11:25;;;;;;;18.80;12.65;;;;;;;;;;5046950;28;20460;-86
2021/11/27 04:13:52;;;;;;;20.40;12.90;;;;;;;;;;5038481;28;20401;-86
2021/11/27 04:16:19;;;;;;;20.75;13.25;;;;;;;;;;5044507;28;20400;-85
2021/11/27 04:18:46;;;;;;;20.35;13.07;;;;;;;;;;5037285;28;20762;-85
2021/11/27 04:21:14;;;;;;;19.73;13.10;;;;;;;;;;5057001;28;20408;-85
2021/11/27 04:23:43;;;;;;;21.38;13.43;;;;;;;;;;5039268;28;20405;-86
2021/11/27 04:26:10;;;;;;;18.38;13.18;;;;;;;;;;5043840;28;20869;-86
2021/11/27 04:28:38;;;;;;;19.50;12.88;;;;;;;;;;5046964;28;20499;-86
2021/11/27 04:31:05;;;;;;;19.08;12.95;;;;;;;;;;5042519;28;20420;-86
2021/11/27 04:33:32;;;;;;;23.98;14.38;;;;;;;;;;5046911;28;20424;-85
2021/11/27 04:35:59;;;;;;;20.27;13.32;;;;;;;;;;5051681;28;20819;-85
2021/11/27 04:38:26;;;;;;;21.85;14.63;;;;;;;;;;5040754;28;20937;-85
2021/11/27 04:40:56;;;;;;;22.58;13.88;;;;;;;;;;5045982;28;20408;-86
2021/11/27 04:43:23;;;;;;;21.05;13.63;;;;;;;;;;5046599;28;20407;-85
2021/11/27 04:45:50;;;;;;;22.15;14.35;;;;;;;;;;5046073;28;20427;-86
2021/11/27 04:48:17;;;;;;;19.88;13.65;;;;;;;;;;5046868;28;20420;-86
2021/11/27 04:50:44;;;;;;;21.30;13.93;;;;;;;;;;5046850;28;20408;-86
2021/11/27 04:53:11;;;;;;;19.55;13.23;;;;;;;;;;5046421;28;20416;-86
2021/11/27 04:55:38;;;;;;;20.25;13.27;;;;;;;;;;5046411;28;20400;-86
2021/11/27 04:58:06;;;;;;;20.55;13.70;;;;;;;;;;5046910;28;20403;-86
2021/11/27 05:00:37;;;;;;;21.25;14.25;;;;;;;;;;5046069;28;20462;-87
2021/11/27 05:03:05;;;;;;;22.27;14.25;;;;;;;;;;5046489;28;21018;-86
2021/11/27 05:05:32;;;;;;;21.58;14.40;;;;;;;;;;5044872;28;20420;-86
2021/11/27 05:07:59;;;;;;;23.23;14.30;;;;;;;;;;5042654;28;20404;-87
2021/11/27 05:10:26;;;;;;;21.17;13.43;;;;;;;;;;5036012;28;20424;-85
2021/11/27 05:12:54;;;;;;;21.25;13.90;;;;;;;;;;5039631;28;20524;-86
2021/11/27 05:15:22;;;;;;;20.88;13.75;;;;;;;;;;5034018;28;20735;-86
2021/11/27 05:17:49;;;;;;;23.30;14.90;;;;;;;;;;5040111;28;20526;-86
2021/11/27 05:20:16;;;;;;;25.08;14.68;;;;;;;;;;5048882;28;20442;-86
2021/11/27 05:22:43;;;;;;;21.30;14.20;;;;;;;;;;5040948;28;20767;-85
2021/11/27 05:25:10;;;;;;;22.67;14.25;;;;;;;;;;5034876;28;20406;-86
2021/11/27 05:27:39;;;;;;;23.17;14.77;;;;;;;;;;5034444;28;20419;-87
2021/11/27 05:30:08;;;;;;;25.02;15.23;;;;;;;;;;5037396;28;20453;-87
2021/11/27 05:32:51;;;;;;;24.58;15.80;;;;;;;;;;5042938;28;20446;-87
2021/11/27 05:35:18;;;;;;;25.73;16.43;;;;;;;;;;5042859;28;20493;-86
2021/11/27 05:37:46;;;;;;;24.08;15.30;;;;;;;;;;5040547;28;20418;-86
2021/11/27 05:40:14;;;;;;;26.05;15.25;;;;;;;;;;5041235;28;20401;-86
2021/11/27 05:42:42;;;;;;;26.50;16.08;;;;;;;;;;5043886;28;20409;-86
2021/11/27 05:45:10;;;;;;;25.58;15.82;;;;;;;;;;5040169;28;20474;-87
2021/11/27 05:47:39;;;;;;;26.73;16.30;;;;;;;;;;5036640;28;20431;-85
2021/11/27 05:50:07;;;;;;;24.92;15.88;;;;;;;;;;5039056;28;20411;-86
2021/11/27 05:52:34;;;;;;;28.33;17.20;;;;;;;;;;5042198;28;20539;-86
2021/11/27 05:55:01;;;;;;;28.02;16.77;;;;;;;;;;5044497;28;20753;-85
2021/11/27 05:57:28;;;;;;;26.58;16.63;;;;;;;;;;5037028;28;20415;-85
2021/11/27 05:59:55;;;;;;;26.95;16.35;;;;;;;;;;5038597;28;20548;-87
2021/11/27 06:02:22;;;;;;;28.73;16.83;;;;;;;;;;5036155;28;20400;-86
2021/11/27 06:04:50;;;;;;;27.15;16.70;;;;;;;;;;5042615;28;20407;-86
2021/11/27 06:07:17;;;;;;;29.83;18.08;;;;;;;;;;5045131;28;20851;-86
2021/11/27 06:09:44;;;;;;;31.90;19.38;;;;;;;;;;5034639;28;20395;-86
2021/11/27 06:12:11;;;;;;;31.48;20.15;;;;;;;;;;5043768;28;20407;-86
2021/11/27 06:14:38;;;;;;;30.90;18.23;;;;;;;;;;5039488;28;20408;-87
2021/11/27 06:17:06;;;;;;;32.50;19.15;;;;;;;;;;5037164;28;20407;-86
2021/11/27 06:19:32;;;;;;;34.57;20.50;;;;;;;;;;5039716;28;20487;-86
2021/11/27 06:22:01;;;;;;;32.53;20.38;;;;;;;;;;5036455;28;20409;-86
2021/11/27 06:24:28;;;;;;;34.55;20.98;;;;;;;;;;5038426;28;20410;-85
2021/11/27 06:26:55;;;;;;;34.25;20.02;;;;;;;;;;5038346;28;20423;-85
2021/11/27 06:29:22;;;;;;;33.88;19.85;;;;;;;;;;5041464;28;20838;-84
2021/11/27 06:31:49;;;;;;;34.17;20.70;;;;;;;;;;5041832;28;20755;-85
2021/11/27 06:34:16;;;;;;;32.42;20.65;;;;;;;;;;5042864;28;20434;-86
2021/11/27 06:36:43;;;;;;;31.40;20.02;;;;;;;;;;5040917;28;21175;-85
2021/11/27 06:39:11;;;;;;;31.23;19.95;;;;;;;;;;5044035;28;20413;-86
2021/11/27 06:41:39;;;;;;;33.63;19.63;;;;;;;;;;5043816;28;20402;-89
2021/11/27 06:44:05;;;;;;;31.17;19.98;;;;;;;;;;5039552;28;20410;-90
2021/11/27 06:46:32;;;;;;;30.60;19.25;;;;;;;;;;5044007;28;20414;-86
2021/11/27 06:48:59;;;;;;;31.35;19.65;;;;;;;;;;5023396;28;20442;-86
2021/11/27 06:51:27;;;;;;;31.20;19.83;;;;;;;;;;5046559;28;20516;-86
2021/11/27 06:53:54;;;;;;;29.90;19.50;;;;;;;;;;5047333;28;20443;-90
2021/11/27 06:56:23;;;;;;;30.63;19.25;;;;;;;;;;5041321;28;20404;-89
2021/11/27 06:58:50;;;;;;;28.50;19.90;;;;;;;;;;5048816;28;20680;-90
2021/11/27 07:01:17;;;;;;;27.88;19.38;;;;;;;;;;5050059;28;20426;-89
2021/11/27 07:03:44;;;;;;;28.38;19.27;;;;;;;;;;5041452;28;20411;-90
2021/11/27 07:06:11;;;;;;;27.92;19.20;;;;;;;;;;5046584;28;20408;-89
2021/11/27 07:08:38;;;;;;;28.73;19.30;;;;;;;;;;5046340;28;20418;-90
2021/11/27 07:11:05;;;;;;;27.60;18.90;;;;;;;;;;5045534;28;20946;-89
2021/11/27 07:13:34;;;;;;;26.58;18.38;;;;;;;;;;5045630;28;20415;-88
2021/11/27 07:16:01;;;;;;;27.13;19.15;;;;;;;;;;5044601;28;20463;-90
2021/11/27 07:18:28;;;;;;;26.85;18.85;;;;;;;;;;5043095;28;20765;-89
2021/11/27 07:20:55;;;;;;;24.10;17.93;;;;;;;;;;5025257;28;20455;-90
2021/11/27 07:23:21;;;;;;;24.55;17.88;;;;;;;;;;5049589;28;20404;-89
2021/11/27 07:25:48;;;;;;;24.73;18.20;;;;;;;;;;5047901;28;20404;-89
2021/11/27 07:28:15;;;;;;;23.13;17.83;;;;;;;;;;5045262;28;20834;-90
2021/11/27 07:30:44;;;;;;;24.00;17.33;;;;;;;;;;5049424;28;20846;-89
2021/11/27 07:33:11;;;;;;;22.38;16.92;;;;;;;;;;5046541;28;20454;-89
2021/11/27 07:35:38;;;;;;;23.77;16.95;;;;;;;;;;5041843;28;20407;-89
2021/11/27 07:38:05;;;;;;;23.77;16.75;;;;;;;;;;5022984;28;20464;-89
2021/11/27 07:40:32;;;;;;;21.98;16.80;;;;;;;;;;5037616;28;20404;-90
2021/11/27 07:43:00;;;;;;;22.38;16.10;;;;;;;;;;5042056;28;20416;-88
2021/11/27 07:45:27;;;;;;;22.67;17.20;;;;;;;;;;5020272;28;20470;-90
2021/11/27 07:47:56;;;;;;;23.20;16.23;;;;;;;;;;5045475;28;20620;-89
2021/11/27 07:50:23;;;;;;;21.05;16.30;;;;;;;;;;5042629;28;20453;-90
2021/11/27 07:52:50;;;;;;;19.77;15.50;;;;;;;;;;5039225;28;20817;-83
2021/11/27 07:55:19;;;;;;;19.38;14.68;;;;;;;;;;5038502;28;20954;-84
2021/11/27 07:57:46;;;;;;;18.25;14.10;;;;;;;;;;5037489;28;20941;-84
2021/11/27 08:00:14;;;;;;;18.75;14.32;;;;;;;;;;5038078;28;20401;-84
2021/11/27 08:02:40;;;;;;;18.35;14.40;;;;;;;;;;5033747;28;20448;-83
2021/11/27 08:05:09;;;;;;;16.85;13.50;;;;;;;;;;5038050;28;20470;-84
2021/11/27 08:07:37;;;;;;;16.60;13.38;;;;;;;;;;5040611;28;20466;-84
2021/11/27 08:10:05;;;;;;;17.00;12.90;;;;;;;;;;5032849;28;20462;-84
2021/11/27 08:12:32;;;;;;;16.27;13.45;;;;;;;;;;5038981;28;20409;-84
2021/11/27 08:14:59;;;;;;;16.00;13.10;;;;;;;;;;5034521;28;20718;-84
2021/11/27 08:17:26;;;;;;;17.52;13.57;;;;;;;;;;5039237;28;20409;-84
2021/11/27 08:19:53;;;;;;;18.08;13.45;;;;;;;;;;5035618;28;20407;-85
2021/11/27 08:22:21;;;;;;;16.05;12.88;;;;;;;;;;5042080;28;20782;-85
2021/11/27 08:24:49;;;;;;;15.00;12.25;;;;;;;;;;5041308;28;20407;-84
2021/11/27 08:27:16;;;;;;;14.98;12.15;;;;;;;;;;5037862;28;20431;-84
2021/11/27 08:29:43;;;;;;;17.95;12.88;;;;;;;;;;5038147;28;20408;-84
2021/11/27 08:32:10;;;;;;;16.63;12.90;;;;;;;;;;5035635;28;20436;-84
2021/11/27 08:34:37;;;;;;;18.07;12.57;;;;;;;;;;5037909;28;20461;-85
2021/11/27 08:37:04;;;;;;;17.73;12.48;;;;;;;;;;5038142;28;20418;-85
2021/11/27 08:39:32;;;;;;;14.70;12.55;;;;;;;;;;5038290;28;20900;-85
2021/11/27 08:41:59;;;;;;;17.25;13.38;;;;;;;;;;5040381;28;20448;-85
2021/11/27 08:44:26;;;;;;;18.80;13.63;;;;;;;;;;5034805;28;20736;-85
2021/11/27 08:46:53;;;;;;;16.80;12.38;;;;;;;;;;5031971;28;20458;-85
2021/11/27 08:49:20;;;;;;;16.73;12.57;;;;;;;;;;5032380;28;20744;-85
2021/11/27 08:51:46;;;;;;;16.00;13.33;;;;;;;;;;5039955;28;20496;-85
2021/11/27 08:54:14;;;;;;;15.90;12.68;;;;;;;;;;5032534;28;20749;-85
2021/11/27 08:56:43;;;;;;;14.68;11.90;;;;;;;;;;5033925;28;20406;-86
2021/11/27 08:59:10;;;;;;;15.68;12.15;;;;;;;;;;5033783;28;20447;-85
2021/11/27 09:01:37;;;;;;;14.97;12.30;;;;;;;;;;5030081;28;20401;-85
2021/11/27 09:04:05;;;;;;;16.25;12.70;;;;;;;;;;5031648;28;20528;-85
2021/11/27 09:06:32;;;;;;;14.52;12.05;;;;;;;;;;5035094;28;20446;-85
2021/11/27 09:08:58;;;;;;;16.13;12.43;;;;;;;;;;5032094;28;20420;-85
2021/11/27 09:11:28;;;;;;;17.42;12.88;;;;;;;;;;5029266;28;20402;-85
2021/11/27 09:13:58;;;;;;;18.10;13.25;;;;;;;;;;5032877;28;20463;-85
2021/11/27 09:16:25;;;;;;;17.65;13.10;;;;;;;;;;5034040;28;20438;-85
2021/11/27 09:18:52;;;;;;;16.83;12.87;;;;;;;;;;5031982;28;20459;-85
2021/11/27 09:21:19;;;;;;;17.10;13.35;;;;;;;;;;5038871;28;20414;-85
2021/11/27 09:23:46;;;;;;;18.02;13.68;;;;;;;;;;5029011;28;20405;-85
2021/11/27 09:26:14;;;;;;;17.77;12.73;;;;;;;;;;5037474;28;20401;-85
2021/11/27 09:28:41;;;;;;;16.47;12.13;;;;;;;;;;5027643;28;21061;-85
2021/11/27 09:31:09;;;;;;;16.55;12.18;;;;;;;;;;5031053;28;20471;-85
2021/11/27 09:33:36;;;;;;;16.30;12.23;;;;;;;;;;5027878;28;20408;-85
2021/11/27 09:36:05;;;;;;;17.98;12.57;;;;;;;;;;5038905;28;20412;-85
2021/11/27 09:38:33;;;;;;;17.40;12.07;;;;;;;;;;5031004;28;20955;-85
2021/11/27 09:41:13;;;;;;;17.35;12.40;;;;;;;;;;5034476;28;20465;-85
2021/11/27 09:43:43;;;;;;;16.53;12.40;;;;;;;;;;5035410;28;20474;-85
2021/11/27 09:46:13;;;;;;;18.95;12.18;;;;;;;;;;5032354;28;20452;-85
2021/11/27 09:48:42;;;;;;;16.83;12.10;;;;;;;;;;5030485;28;20475;-85
2021/11/27 09:51:09;;;;;;;16.52;12.35;;;;;;;;;;5040330;28;20815;-85
2021/11/27 09:53:38;;;;;;;17.85;12.02;;;;;;;;;;5030774;28;20449;-85
2021/11/27 09:56:06;;;;;;;17.52;12.32;;;;;;;;;;5030648;28;20449;-85
2021/11/27 09:58:33;;;;;;;17.13;12.27;;;;;;;;;;5029064;28;20449;-86
2021/11/27 10:01:05;;;;;;;17.23;12.45;;;;;;;;;;5040577;28;20798;-96
2021/11/27 10:03:37;;;;;;;17.85;12.45;;;;;;;;;;5056609;28;20467;-96
2021/11/27 10:06:04;;;;;;;16.57;11.97;;;;;;;;;;5045566;28;20418;-96
2021/11/27 10:08:33;;;;;;;16.63;12.20;;;;;;;;;;5054942;28;20424;-85
2021/11/27 10:11:00;;;;;;;16.60;12.18;;;;;;;;;;5032238;28;20409;-85
2021/11/27 10:13:28;;;;;;;16.08;11.70;;;;;;;;;;5034218;28;20413;-85
2021/11/27 10:15:54;;;;;;;17.27;12.05;;;;;;;;;;5035695;28;20403;-85
2021/11/27 10:18:25;;;;;;;16.00;12.15;;;;;;;;;;5038270;28;20477;-85
2021/11/27 10:21:14;;;;;;;20.67;16.50;;;;;;;;;;5042635;28;20431;-84
2021/11/27 10:23:42;;;;;;;18.90;13.75;;;;;;;;;;5035272;28;20410;-85
2021/11/27 10:26:08;;;;;;;16.30;11.80;;;;;;;;;;5040700;28;20464;-85
2021/11/27 10:28:35;;;;;;;16.63;11.98;;;;;;;;;;5030740;28;20487;-85
2021/11/27 10:31:03;;;;;;;20.47;14.73;;;;;;;;;;5036390;28;20499;-85
2021/11/27 10:33:36;;;;;;;18.63;13.05;;;;;;;;;;5042862;28;20484;-85
2021/11/27 10:36:07;;;;;;;15.55;11.90;;;;;;;;;;5036494;28;20421;-85
2021/11/27 10:38:43;;;;;;;17.05;12.23;;;;;;;;;;5033158;28;20403;-85
2021/11/27 10:41:12;;;;;;;18.70;12.77;;;;;;;;;;5035588;28;20412;-85
2021/11/27 10:43:57;;;;;;;17.48;12.82;;;;;;;;;;5039896;28;20417;-85
2021/11/27 10:46:26;;;;;;;20.13;12.35;;;;;;;;;;5035592;28;20865;-84
2021/11/27 10:48:53;;;;;;;17.58;12.63;;;;;;;;;;5039511;28;20517;-84
2021/11/27 10:51:22;;;;;;;18.00;12.73;;;;;;;;;;5044163;28;20416;-83
2021/11/27 10:53:54;;;;;;;16.43;12.57;;;;;;;;;;5037190;28;20818;-83
2021/11/27 10:56:21;;;;;;;18.73;13.98;;;;;;;;;;5039420;28;20415;-84
2021/11/27 10:58:59;;;;;;;18.25;13.98;;;;;;;;;;5042480;28;20404;-84
2021/11/27 11:01:26;;;;;;;19.08;13.68;;;;;;;;;;5038382;28;20492;-84
2021/11/27 11:03:52;;;;;;;18.67;14.05;;;;;;;;;;5037498;28;20403;-84
2021/11/27 11:06:22;;;;;;;19.30;14.10;;;;;;;;;;5038149;28;20416;-84
2021/11/27 11:08:50;;;;;;;21.38;14.75;;;;;;;;;;5040428;28;20912;-84
2021/11/27 11:11:28;;;;;;;21.92;16.05;;;;;;;;;;5036403;28;20439;-84
2021/11/27 11:13:57;;;;;;;21.40;15.30;;;;;;;;;;5036856;28;20884;-84
2021/11/27 11:16:26;;;;;;;21.55;15.82;;;;;;;;;;5041127;28;20783;-84
2021/11/27 11:19:11;;;;;;;21.30;15.93;;;;;;;;;;5039348;28;20411;-84
2021/11/27 11:21:39;;;;;;;20.70;14.90;;;;;;;;;;5038035;28;20895;-84
2021/11/27 11:24:21;;;;;;;20.02;15.63;;;;;;;;;;5039357;28;20415;-79
2021/11/27 11:26:55;;;;;;;21.50;16.35;;;;;;;;;;5036509;28;20418;-86
2021/11/27 11:29:21;;;;;;;23.23;16.25;;;;;;;;;;5036481;28;20436;-86
2021/11/27 11:31:48;;;;;;;20.20;15.45;;;;;;;;;;5041703;28;20392;-85
2021/11/27 11:34:15;;;;;;;20.88;15.88;;;;;;;;;;5041284;28;20414;-85
2021/11/27 11:36:44;;;;;;;19.98;15.27;;;;;;;;;;5041517;28;20409;-83
2021/11/27 11:39:11;;;;;;;22.75;16.30;;;;;;;;;;5041820;28;20396;-83
2021/11/27 11:41:41;;;;;;;21.52;15.88;;;;;;;;;;5039830;28;20408;-84
2021/11/27 11:44:08;;;;;;;22.20;15.52;;;;;;;;;;5034310;28;20399;-82
2021/11/27 11:46:37;;;;;;;20.40;15.38;;;;;;;;;;5037786;28;20443;-82
2021/11/27 11:49:05;;;;;;;20.80;15.75;;;;;;;;;;5033770;28;21295;-82
2021/11/27 11:51:43;;;;;;;23.45;16.33;;;;;;;;;;5042966;28;20404;-82
2021/11/27 11:54:12;;;;;;;20.15;15.65;;;;;;;;;;5037748;28;20405;-81
2021/11/27 11:56:41;;;;;;;19.55;15.18;;;;;;;;;;5038134;28;20408;-82
2021/11/27 11:59:23;;;;;;;20.00;15.87;;;;;;;;;;5032267;28;20832;-82
2021/11/27 12:02:16;;;;;;;20.65;15.05;;;;;;;;;;5036981;28;20799;-82
2021/11/27 12:05:12;;;;;;;21.25;16.05;;;;;;;;;;5040058;28;20410;-84
2021/11/27 12:07:51;;;;;;;18.48;14.40;;;;;;;;;;5031670;28;21930;-82
2021/11/27 12:10:21;;;;;;;18.23;14.13;;;;;;;;;;5038395;28;20411;-81
2021/11/27 12:13:17;;;;;;;22.73;16.92;;;;;;;;;;5034555;28;20940;-89
2021/11/27 12:15:45;;;;;;;31.30;25.07;;;;;;;;;;5033996;28;20409;-82
2021/11/27 12:18:15;;;;;;;158.05;123.93;;;;;;;;;;5039858;28;20410;-83
2021/11/27 12:20:48;;;;;;;212.93;152.30;;;;;;;;;;5040012;28;20410;-81
2021/11/27 12:23:35;;;;;;;34.53;24.55;;;;;;;;;;5032291;28;20406;-80
2021/11/27 12:26:31;;;;;;;78.35;65.28;;;;;;;;;;5034389;28;20418;-81
2021/11/27 12:29:14;;;;;;;42.90;38.22;;;;;;;;;;5003422;28;20467;-81
2021/11/27 12:31:45;;;;;;;23.40;17.87;;;;;;;;;;5030639;28;20770;-90
2021/11/27 12:34:13;;;;;;;34.85;25.30;;;;;;;;;;5037180;28;20774;-92
2021/11/27 12:36:57;;;;;;;30.23;21.90;;;;;;;;;;5036736;28;20987;-82
2021/11/27 12:39:38;;;;;;;19.00;14.20;;;;;;;;;;5046100;28;20890;-89
2021/11/27 12:42:37;;;;;;;20.98;15.00;;;;;;;;;;5041537;28;20399;-83
2021/11/27 12:45:08;;;;;;;19.45;14.38;;;;;;;;;;5031548;28;20412;-82
2021/11/27 12:47:36;;;;;;;19.38;15.20;;;;;;;;;;5037613;28;21168;-82
2021/11/27 12:50:15;;;;;;;20.17;15.05;;;;;;;;;;5038436;28;21232;-82
2021/11/27 12:52:44;;;;;;;20.45;14.15;;;;;;;;;;5034605;28;20405;-82
2021/11/27 12:55:33;;;;;;;18.35;14.13;;;;;;;;;;5035506;28;20461;-82
2021/11/27 12:58:22;;;;;;;19.35;13.27;;;;;;;;;;5035080;28;20857;-82
2021/11/27 13:00:49;;;;;;;18.45;12.98;;;;;;;;;;5037937;28;20758;-83
2021/11/27 13:03:16;;;;;;;17.05;12.88;;;;;;;;;;5033108;28;20928;-82
2021/11/27 13:05:43;;;;;;;21.80;13.40;;;;;;;;;;5032821;28;20414;-83
2021/11/27 13:08:12;;;;;;;16.80;12.57;;;;;;;;;;5036572;28;20473;-83
2021/11/27 13:10:41;;;;;;;18.15;12.10;;;;;;;;;;5037058;28;20419;-82
2021/11/27 13:13:16;;;;;;;20.23;12.85;;;;;;;;;;5037240;28;20920;-82
2021/11/27 13:15:44;;;;;;;17.05;13.13;;;;;;;;;;5035241;28;20453;-82
2021/11/27 13:18:15;;;;;;;16.55;12.48;;;;;;;;;;5037053;28;20416;-83
2021/11/27 13:20:47;;;;;;;15.38;12.07;;;;;;;;;;5039725;28;20411;-92
2021/11/27 13:23:16;;;;;;;15.18;12.15;;;;;;;;;;5018627;28;20431;-82
2021/11/27 13:25:45;;;;;;;17.88;11.32;;;;;;;;;;5028335;28;20882;-82
2021/11/27 13:28:31;;;;;;;14.90;10.65;;;;;;;;;;5031728;28;20434;-82
2021/11/27 13:31:00;;;;;;;13.73;10.80;;;;;;;;;;5032946;28;20904;-82
2021/11/27 13:33:48;;;;;;;16.83;11.35;;;;;;;;;;5036000;28;20420;-76
2021/11/27 13:36:25;;;;;;;16.20;11.38;;;;;;;;;;5039139;28;20407;-75
2021/11/27 13:38:54;;;;;;;14.10;10.50;;;;;;;;;;5036992;28;20411;-82
2021/11/27 13:41:21;;;;;;;13.13;10.68;;;;;;;;;;5036831;28;20409;-82
2021/11/27 13:43:50;;;;;;;12.57;10.43;;;;;;;;;;5024214;28;20924;-82
2021/11/27 13:46:17;;;;;;;14.60;10.75;;;;;;;;;;5025091;28;20410;-82
2021/11/27 13:48:44;;;;;;;13.73;10.65;;;;;;;;;;5029175;28;20421;-81
2021/11/27 13:51:10;;;;;;;13.95;11.05;;;;;;;;;;5032258;28;20416;-81
2021/11/27 13:53:37;;;;;;;13.63;10.70;;;;;;;;;;5031208;28;20429;-82
2021/11/27 13:56:04;;;;;;;14.70;11.95;;;;;;;;;;5029394;28;20399;-82
2021/11/27 13:58:31;;;;;;;14.88;11.18;;;;;;;;;;5032663;28;20765;-82
2021/11/27 14:01:01;;;;;;;12.25;10.60;;;;;;;;;;5035277;28;20406;-81
2021/11/27 14:03:32;;;;;;;15.15;11.10;;;;;;;;;;5031098;28;20403;-82
2021/11/27 14:06:10;;;;;;;12.70;10.07;;;;;;;;;;5035538;28;20419;-81
2021/11/27 14:08:38;;;;;;;12.48;10.13;;;;;;;;;;5034551;28;20775;-82
2021/11/27 14:11:09;;;;;;;14.00;10.10;;;;;;;;;;5028680;28;20413;-81
2021/11/27 14:13:38;;;;;;;13.63;9.77;;;;;;;;;;5038871;28;20407;-81
2021/11/27 14:16:19;;;;;;;12.98;9.98;;;;;;;;;;5028021;28;20717;-81
2021/11/27 14:18:46;;;;;;;15.02;10.57;;;;;;;;;;5034163;28;20411;-81
2021/11/27 14:21:14;;;;;;;14.05;10.70;;;;;;;;;;5038761;28;20410;-81
2021/11/27 14:23:45;;;;;;;15.50;10.50;;;;;;;;;;5033554;28;20402;-81
2021/11/27 14:26:16;;;;;;;14.63;10.70;;;;;;;;;;5038185;28;20410;-81
2021/11/27 14:28:45;;;;;;;19.63;13.68;;;;;;;;;;5030996;28;20885;-81
2021/11/27 14:31:18;;;;;;;21.23;14.52;;;;;;;;;;5031921;28;20789;-81